sensor_id;sensor_type;location;lat;lon;timestamp;temperature;humidity
47414;DHT22;33163;0.000;0.000;2023-02-21T00:00:00;18.70;60.70
47414;DHT22;33163;0.000;0.000;2023-02-21T00:02:44;18.70;60.70
47414;DHT22;33163;0.000;0.000;2023-02-21T00:05:29;18.70;60.60
47414;DHT22;33163;0.000;0.000;2023-02-21T00:08:13;18.70;60.70
47414;DHT22;33163;0.000;0.000;2023-02-21T00:10:57;18.70;60.60
47414;DHT22;33163;0.000;0.000;2023-02-21T00:13:43;18.70;60.60
47414;DHT22;33163;0.000;0.000;2023-02-21T00:16:27;18.70;60.60
47414;DHT22;33163;0.000;0.000;2023-02-21T00:19:11;18.70;60.60
47414;DHT22;33163;0.000;0.000;2023-02-21T00:21:55;18.70;60.60
47414;DHT22;33163;0.000;0.000;2023-02-21T00:24:39;18.70;60.60
47414;DHT22;33163;0.000;0.000;2023-02-21T00:27:23;18.70;60.60
47414;DHT22;33163;0.000;0.000;2023-02-21T00:30:10;18.70;60.50
47414;DHT22;33163;0.000;0.000;2023-02-21T00:32:55;18.70;60.60
47414;DHT22;33163;0.000;0.000;2023-02-21T00:35:39;18.70;60.50
47414;DHT22;33163;0.000;0.000;2023-02-21T00:38:23;18.70;60.50
47414;DHT22;33163;0.000;0.000;2023-02-21T00:41:08;18.70;60.50
47414;DHT22;33163;0.000;0.000;2023-02-21T00:43:52;18.70;60.50
47414;DHT22;33163;0.000;0.000;2023-02-21T00:46:38;18.60;60.40
47414;DHT22;33163;0.000;0.000;2023-02-21T00:49:23;18.70;60.40
47414;DHT22;33163;0.000;0.000;2023-02-21T00:52:07;18.60;60.30
47414;DHT22;33163;0.000;0.000;2023-02-21T00:54:51;18.60;60.30
47414;DHT22;33163;0.000;0.000;2023-02-21T00:57:35;18.60;60.30
47414;DHT22;33163;0.000;0.000;2023-02-21T01:00:21;18.60;60.30
47414;DHT22;33163;0.000;0.000;2023-02-21T01:03:07;18.60;60.60
47414;DHT22;33163;0.000;0.000;2023-02-21T01:05:53;18.60;60.30
47414;DHT22;33163;0.000;0.000;2023-02-21T01:08:40;18.60;60.30
47414;DHT22;33163;0.000;0.000;2023-02-21T01:11:25;18.60;60.30
47414;DHT22;33163;0.000;0.000;2023-02-21T01:14:09;18.60;60.30
47414;DHT22;33163;0.000;0.000;2023-02-21T01:16:54;18.60;60.30
47414;DHT22;33163;0.000;0.000;2023-02-21T01:19:40;18.60;60.30
47414;DHT22;33163;0.000;0.000;2023-02-21T01:22:24;18.60;60.30
47414;DHT22;33163;0.000;0.000;2023-02-21T01:25:08;18.60;60.30
47414;DHT22;33163;0.000;0.000;2023-02-21T01:27:53;18.60;60.30
47414;DHT22;33163;0.000;0.000;2023-02-21T01:30:40;18.60;60.30
47414;DHT22;33163;0.000;0.000;2023-02-21T01:33:25;18.60;60.30
47414;DHT22;33163;0.000;0.000;2023-02-21T01:36:11;18.60;60.30
47414;DHT22;33163;0.000;0.000;2023-02-21T01:38:55;18.60;60.20
47414;DHT22;33163;0.000;0.000;2023-02-21T01:41:39;18.60;60.30
47414;DHT22;33163;0.000;0.000;2023-02-21T01:44:33;18.60;60.30
47414;DHT22;33163;0.000;0.000;2023-02-21T01:47:19;18.60;60.30
47414;DHT22;33163;0.000;0.000;2023-02-21T01:50:07;18.60;60.30
47414;DHT22;33163;0.000;0.000;2023-02-21T01:52:53;18.60;60.30
47414;DHT22;33163;0.000;0.000;2023-02-21T01:55:39;18.60;60.20
47414;DHT22;33163;0.000;0.000;2023-02-21T01:58:26;18.60;60.20
47414;DHT22;33163;0.000;0.000;2023-02-21T02:01:18;18.60;60.20
47414;DHT22;33163;0.000;0.000;2023-02-21T02:04:04;18.60;60.30
47414;DHT22;33163;0.000;0.000;2023-02-21T02:06:48;18.60;60.30
47414;DHT22;33163;0.000;0.000;2023-02-21T02:09:34;18.60;60.30
47414;DHT22;33163;0.000;0.000;2023-02-21T02:12:34;18.50;60.20
47414;DHT22;33163;0.000;0.000;2023-02-21T02:21:20;18.60;60.20
47414;DHT22;33163;0.000;0.000;2023-02-21T02:27:40;18.60;60.20
47414;DHT22;33163;0.000;0.000;2023-02-21T02:30:39;18.60;60.30
47414;DHT22;33163;0.000;0.000;2023-02-21T02:33:49;18.50;60.20
47414;DHT22;33163;0.000;0.000;2023-02-21T02:36:24;18.50;60.20
47414;DHT22;33163;0.000;0.000;2023-02-21T02:38:58;18.50;60.20
47414;DHT22;33163;0.000;0.000;2023-02-21T02:41:35;18.50;60.20
47414;DHT22;33163;0.000;0.000;2023-02-21T02:44:12;18.50;60.20
47414;DHT22;33163;0.000;0.000;2023-02-21T02:46:40;18.50;60.20
47414;DHT22;33163;0.000;0.000;2023-02-21T02:49:11;18.50;60.20
47414;DHT22;33163;0.000;0.000;2023-02-21T02:51:41;18.50;60.20
47414;DHT22;33163;0.000;0.000;2023-02-21T02:54:08;18.50;60.20
47414;DHT22;33163;0.000;0.000;2023-02-21T02:56:35;18.50;60.10
47414;DHT22;33163;0.000;0.000;2023-02-21T02:59:05;18.50;60.20
47414;DHT22;33163;0.000;0.000;2023-02-21T03:01:47;18.50;60.10
47414;DHT22;33163;0.000;0.000;2023-02-21T03:04:33;18.50;60.10
47414;DHT22;33163;0.000;0.000;2023-02-21T03:07:10;18.50;60.10
47414;DHT22;33163;0.000;0.000;2023-02-21T03:09:48;18.50;60.10
47414;DHT22;33163;0.000;0.000;2023-02-21T03:12:24;18.50;60.10
47414;DHT22;33163;0.000;0.000;2023-02-21T03:14:59;18.50;60.10
47414;DHT22;33163;0.000;0.000;2023-02-21T03:17:27;18.50;60.10
47414;DHT22;33163;0.000;0.000;2023-02-21T03:19:56;18.50;60.20
47414;DHT22;33163;0.000;0.000;2023-02-21T03:22:27;18.50;60.10
47414;DHT22;33163;0.000;0.000;2023-02-21T03:24:58;18.50;60.20
47414;DHT22;33163;0.000;0.000;2023-02-21T03:27:26;18.50;60.10
47414;DHT22;33163;0.000;0.000;2023-02-21T03:29:56;18.50;60.10
47414;DHT22;33163;0.000;0.000;2023-02-21T03:32:25;18.50;60.10
47414;DHT22;33163;0.000;0.000;2023-02-21T03:34:52;18.50;60.10
47414;DHT22;33163;0.000;0.000;2023-02-21T03:37:27;18.40;60.10
47414;DHT22;33163;0.000;0.000;2023-02-21T03:39:56;18.50;60.10
47414;DHT22;33163;0.000;0.000;2023-02-21T03:42:23;18.50;60.10
47414;DHT22;33163;0.000;0.000;2023-02-21T03:44:52;18.50;60.10
47414;DHT22;33163;0.000;0.000;2023-02-21T03:47:19;18.50;60.10
47414;DHT22;33163;0.000;0.000;2023-02-21T03:49:46;18.50;60.20
47414;DHT22;33163;0.000;0.000;2023-02-21T03:52:13;18.50;60.20
47414;DHT22;33163;0.000;0.000;2023-02-21T03:54:40;18.50;60.20
47414;DHT22;33163;0.000;0.000;2023-02-21T03:57:08;18.40;60.10
47414;DHT22;33163;0.000;0.000;2023-02-21T03:59:35;18.40;60.10
47414;DHT22;33163;0.000;0.000;2023-02-21T04:02:02;18.50;60.10
47414;DHT22;33163;0.000;0.000;2023-02-21T04:04:31;18.50;60.10
47414;DHT22;33163;0.000;0.000;2023-02-21T04:06:57;18.50;60.10
47414;DHT22;33163;0.000;0.000;2023-02-21T04:09:24;18.40;60.10
47414;DHT22;33163;0.000;0.000;2023-02-21T04:11:52;18.40;60.10
47414;DHT22;33163;0.000;0.000;2023-02-21T04:14:20;18.40;60.10
47414;DHT22;33163;0.000;0.000;2023-02-21T04:16:47;18.40;60.20
47414;DHT22;33163;0.000;0.000;2023-02-21T04:19:13;18.40;60.10
47414;DHT22;33163;0.000;0.000;2023-02-21T04:21:40;18.40;60.10
47414;DHT22;33163;0.000;0.000;2023-02-21T04:24:07;18.40;60.20
47414;DHT22;33163;0.000;0.000;2023-02-21T04:26:34;18.40;60.20
47414;DHT22;33163;0.000;0.000;2023-02-21T04:29:01;18.40;60.10
47414;DHT22;33163;0.000;0.000;2023-02-21T04:31:29;18.40;60.20
47414;DHT22;33163;0.000;0.000;2023-02-21T04:33:56;18.40;60.20
47414;DHT22;33163;0.000;0.000;2023-02-21T04:36:23;18.40;60.20
47414;DHT22;33163;0.000;0.000;2023-02-21T04:38:53;18.40;60.30
47414;DHT22;33163;0.000;0.000;2023-02-21T04:41:20;18.40;60.30
47414;DHT22;33163;0.000;0.000;2023-02-21T04:43:47;18.40;60.30
47414;DHT22;33163;0.000;0.000;2023-02-21T04:46:16;18.40;60.40
47414;DHT22;33163;0.000;0.000;2023-02-21T04:48:46;18.40;60.30
47414;DHT22;33163;0.000;0.000;2023-02-21T04:51:14;18.40;60.30
47414;DHT22;33163;0.000;0.000;2023-02-21T04:53:41;18.40;60.40
47414;DHT22;33163;0.000;0.000;2023-02-21T04:56:08;18.40;60.30
47414;DHT22;33163;0.000;0.000;2023-02-21T04:58:35;18.40;60.40
47414;DHT22;33163;0.000;0.000;2023-02-21T05:01:02;18.40;61.00
47414;DHT22;33163;0.000;0.000;2023-02-21T05:03:29;18.40;60.40
47414;DHT22;33163;0.000;0.000;2023-02-21T05:05:57;18.40;60.40
47414;DHT22;33163;0.000;0.000;2023-02-21T05:08:24;18.40;60.40
47414;DHT22;33163;0.000;0.000;2023-02-21T05:10:54;18.40;60.40
47414;DHT22;33163;0.000;0.000;2023-02-21T05:13:21;18.40;60.40
47414;DHT22;33163;0.000;0.000;2023-02-21T05:15:48;18.40;60.40
47414;DHT22;33163;0.000;0.000;2023-02-21T05:18:15;18.40;60.40
47414;DHT22;33163;0.000;0.000;2023-02-21T05:20:47;18.40;60.30
47414;DHT22;33163;0.000;0.000;2023-02-21T05:23:16;18.40;60.30
47414;DHT22;33163;0.000;0.000;2023-02-21T05:25:43;18.40;60.30
47414;DHT22;33163;0.000;0.000;2023-02-21T05:28:10;18.40;60.30
47414;DHT22;33163;0.000;0.000;2023-02-21T05:30:37;18.40;60.30
47414;DHT22;33163;0.000;0.000;2023-02-21T05:33:03;18.40;60.30
47414;DHT22;33163;0.000;0.000;2023-02-21T05:35:30;18.40;60.30
47414;DHT22;33163;0.000;0.000;2023-02-21T05:37:57;18.40;60.30
47414;DHT22;33163;0.000;0.000;2023-02-21T05:40:25;18.40;60.30
47414;DHT22;33163;0.000;0.000;2023-02-21T05:42:52;18.40;60.20
47414;DHT22;33163;0.000;0.000;2023-02-21T05:45:19;18.40;60.30
47414;DHT22;33163;0.000;0.000;2023-02-21T05:47:45;18.40;60.30
47414;DHT22;33163;0.000;0.000;2023-02-21T05:50:12;18.40;60.30
47414;DHT22;33163;0.000;0.000;2023-02-21T05:52:40;18.40;60.30
47414;DHT22;33163;0.000;0.000;2023-02-21T05:55:07;18.40;60.30
47414;DHT22;33163;0.000;0.000;2023-02-21T05:57:38;18.40;60.30
47414;DHT22;33163;0.000;0.000;2023-02-21T06:00:06;18.40;60.30
47414;DHT22;33163;0.000;0.000;2023-02-21T06:02:33;18.30;60.30
47414;DHT22;33163;0.000;0.000;2023-02-21T06:04:59;18.40;61.00
47414;DHT22;33163;0.000;0.000;2023-02-21T06:07:26;18.40;60.20
47414;DHT22;33163;0.000;0.000;2023-02-21T06:09:53;18.40;60.20
47414;DHT22;33163;0.000;0.000;2023-02-21T06:12:20;18.30;60.30
47414;DHT22;33163;0.000;0.000;2023-02-21T06:14:48;18.40;60.30
47414;DHT22;33163;0.000;0.000;2023-02-21T06:17:14;18.30;60.20
47414;DHT22;33163;0.000;0.000;2023-02-21T06:19:41;18.30;60.20
47414;DHT22;33163;0.000;0.000;2023-02-21T06:22:08;18.30;60.20
47414;DHT22;33163;0.000;0.000;2023-02-21T06:24:35;18.30;60.20
47414;DHT22;33163;0.000;0.000;2023-02-21T06:27:01;18.30;60.20
47414;DHT22;33163;0.000;0.000;2023-02-21T06:29:28;18.30;60.20
47414;DHT22;33163;0.000;0.000;2023-02-21T06:31:57;18.30;60.20
47414;DHT22;33163;0.000;0.000;2023-02-21T06:34:24;18.30;60.20
47414;DHT22;33163;0.000;0.000;2023-02-21T06:36:51;18.30;60.30
47414;DHT22;33163;0.000;0.000;2023-02-21T06:39:18;18.30;60.40
47414;DHT22;33163;0.000;0.000;2023-02-21T06:41:45;18.30;60.70
47414;DHT22;33163;0.000;0.000;2023-02-21T06:44:11;18.30;61.20
47414;DHT22;33163;0.000;0.000;2023-02-21T06:46:38;18.30;61.50
47414;DHT22;33163;0.000;0.000;2023-02-21T06:49:06;18.30;61.60
47414;DHT22;33163;0.000;0.000;2023-02-21T06:51:34;18.30;61.80
47414;DHT22;33163;0.000;0.000;2023-02-21T06:54:01;18.30;61.90
47414;DHT22;33163;0.000;0.000;2023-02-21T06:56:27;18.30;61.90
47414;DHT22;33163;0.000;0.000;2023-02-21T06:58:55;18.30;61.90
47414;DHT22;33163;0.000;0.000;2023-02-21T07:01:24;18.30;62.40
47414;DHT22;33163;0.000;0.000;2023-02-21T07:03:52;18.30;61.90
47414;DHT22;33163;0.000;0.000;2023-02-21T07:06:21;18.30;61.90
47414;DHT22;33163;0.000;0.000;2023-02-21T07:08:48;18.30;61.90
47414;DHT22;33163;0.000;0.000;2023-02-21T07:11:15;18.20;61.80
47414;DHT22;33163;0.000;0.000;2023-02-21T07:13:46;18.20;61.80
47414;DHT22;33163;0.000;0.000;2023-02-21T07:16:14;18.30;61.90
47414;DHT22;33163;0.000;0.000;2023-02-21T07:18:42;18.30;61.80
47414;DHT22;33163;0.000;0.000;2023-02-21T07:21:09;18.20;61.70
47414;DHT22;33163;0.000;0.000;2023-02-21T07:23:37;18.20;61.60
47414;DHT22;33163;0.000;0.000;2023-02-21T07:26:04;18.30;61.60
47414;DHT22;33163;0.000;0.000;2023-02-21T07:28:31;18.20;61.60
47414;DHT22;33163;0.000;0.000;2023-02-21T07:30:57;18.20;61.50
47414;DHT22;33163;0.000;0.000;2023-02-21T07:33:24;18.20;61.50
47414;DHT22;33163;0.000;0.000;2023-02-21T07:35:51;18.20;61.50
47414;DHT22;33163;0.000;0.000;2023-02-21T07:38:22;18.20;61.50
47414;DHT22;33163;0.000;0.000;2023-02-21T07:40:52;18.20;61.80
47414;DHT22;33163;0.000;0.000;2023-02-21T07:43:19;18.20;61.90
47414;DHT22;33163;0.000;0.000;2023-02-21T07:45:46;18.30;61.60
47414;DHT22;33163;0.000;0.000;2023-02-21T07:48:13;18.30;61.70
47414;DHT22;33163;0.000;0.000;2023-02-21T07:50:40;18.40;61.60
47414;DHT22;33163;0.000;0.000;2023-02-21T07:53:07;18.40;61.40
47414;DHT22;33163;0.000;0.000;2023-02-21T07:55:34;18.50;61.30
47414;DHT22;33163;0.000;0.000;2023-02-21T07:58:02;18.60;61.10
47414;DHT22;33163;0.000;0.000;2023-02-21T08:00:29;18.60;60.90
47414;DHT22;33163;0.000;0.000;2023-02-21T08:02:56;18.70;60.70
47414;DHT22;33163;0.000;0.000;2023-02-21T08:05:23;18.70;60.60
47414;DHT22;33163;0.000;0.000;2023-02-21T08:07:55;18.80;60.40
47414;DHT22;33163;0.000;0.000;2023-02-21T08:10:23;18.80;60.20
47414;DHT22;33163;0.000;0.000;2023-02-21T08:12:53;18.90;60.10
47414;DHT22;33163;0.000;0.000;2023-02-21T08:15:21;18.90;60.00
47414;DHT22;33163;0.000;0.000;2023-02-21T08:17:49;19.00;59.90
47414;DHT22;33163;0.000;0.000;2023-02-21T08:20:16;19.00;59.70
47414;DHT22;33163;0.000;0.000;2023-02-21T08:22:43;19.10;59.60
47414;DHT22;33163;0.000;0.000;2023-02-21T08:25:10;19.10;59.40
47414;DHT22;33163;0.000;0.000;2023-02-21T08:27:38;19.10;59.30
47414;DHT22;33163;0.000;0.000;2023-02-21T08:30:05;19.20;59.20
47414;DHT22;33163;0.000;0.000;2023-02-21T08:32:34;19.20;59.10
47414;DHT22;33163;0.000;0.000;2023-02-21T08:35:02;19.20;59.00
47414;DHT22;33163;0.000;0.000;2023-02-21T08:37:30;19.20;58.90
47414;DHT22;33163;0.000;0.000;2023-02-21T08:40:01;19.20;59.00
47414;DHT22;33163;0.000;0.000;2023-02-21T08:42:28;19.20;59.00
47414;DHT22;33163;0.000;0.000;2023-02-21T08:44:55;19.20;59.00
47414;DHT22;33163;0.000;0.000;2023-02-21T08:47:22;19.10;59.00
47414;DHT22;33163;0.000;0.000;2023-02-21T08:49:52;19.10;59.10
47414;DHT22;33163;0.000;0.000;2023-02-21T08:52:19;19.10;59.10
47414;DHT22;33163;0.000;0.000;2023-02-21T08:54:46;19.10;59.20
47414;DHT22;33163;0.000;0.000;2023-02-21T08:57:13;19.10;59.20
47414;DHT22;33163;0.000;0.000;2023-02-21T08:59:41;19.00;59.10
47414;DHT22;33163;0.000;0.000;2023-02-21T09:02:14;19.00;59.20
47414;DHT22;33163;0.000;0.000;2023-02-21T09:04:41;19.00;59.20
47414;DHT22;33163;0.000;0.000;2023-02-21T09:07:11;18.90;59.30
47414;DHT22;33163;0.000;0.000;2023-02-21T09:09:38;18.90;59.50
47414;DHT22;33163;0.000;0.000;2023-02-21T09:12:05;18.90;59.60
47414;DHT22;33163;0.000;0.000;2023-02-21T09:14:33;18.80;59.50
47414;DHT22;33163;0.000;0.000;2023-02-21T09:17:01;18.80;59.60
47414;DHT22;33163;0.000;0.000;2023-02-21T09:19:28;18.80;59.60
47414;DHT22;33163;0.000;0.000;2023-02-21T09:21:55;18.80;59.70
47414;DHT22;33163;0.000;0.000;2023-02-21T09:24:24;18.80;59.70
47414;DHT22;33163;0.000;0.000;2023-02-21T09:26:51;18.80;59.80
47414;DHT22;33163;0.000;0.000;2023-02-21T09:29:19;18.80;59.80
47414;DHT22;33163;0.000;0.000;2023-02-21T09:31:47;18.80;59.80
47414;DHT22;33163;0.000;0.000;2023-02-21T09:34:14;18.80;59.70
47414;DHT22;33163;0.000;0.000;2023-02-21T09:36:41;18.80;59.70
47414;DHT22;33163;0.000;0.000;2023-02-21T09:39:08;18.80;59.70
47414;DHT22;33163;0.000;0.000;2023-02-21T09:41:39;18.80;59.80
47414;DHT22;33163;0.000;0.000;2023-02-21T09:44:12;18.80;59.80
47414;DHT22;33163;0.000;0.000;2023-02-21T09:46:43;18.70;59.80
47414;DHT22;33163;0.000;0.000;2023-02-21T09:49:14;18.70;59.80
47414;DHT22;33163;0.000;0.000;2023-02-21T09:51:43;18.70;59.80
47414;DHT22;33163;0.000;0.000;2023-02-21T09:54:16;18.70;59.90
47414;DHT22;33163;0.000;0.000;2023-02-21T09:56:46;18.80;59.80
47414;DHT22;33163;0.000;0.000;2023-02-21T09:59:13;18.80;59.80
47414;DHT22;33163;0.000;0.000;2023-02-21T10:01:52;18.80;59.80
47414;DHT22;33163;0.000;0.000;2023-02-21T10:04:30;18.70;59.80
47414;DHT22;33163;0.000;0.000;2023-02-21T10:07:07;18.70;59.80
47414;DHT22;33163;0.000;0.000;2023-02-21T10:09:41;18.70;59.80
47414;DHT22;33163;0.000;0.000;2023-02-21T10:12:20;18.70;59.80
47414;DHT22;33163;0.000;0.000;2023-02-21T10:15:15;18.70;60.40
47414;DHT22;33163;0.000;0.000;2023-02-21T10:17:49;18.70;59.80
47414;DHT22;33163;0.000;0.000;2023-02-21T10:20:26;18.70;59.80
47414;DHT22;33163;0.000;0.000;2023-02-21T10:22:55;18.70;59.70
47414;DHT22;33163;0.000;0.000;2023-02-21T10:25:26;18.70;59.70
47414;DHT22;33163;0.000;0.000;2023-02-21T10:27:55;18.70;59.80
47414;DHT22;33163;0.000;0.000;2023-02-21T10:30:27;18.70;59.80
47414;DHT22;33163;0.000;0.000;2023-02-21T10:32:55;18.70;59.90
47414;DHT22;33163;0.000;0.000;2023-02-21T10:35:22;18.60;59.90
47414;DHT22;33163;0.000;0.000;2023-02-21T10:37:54;18.60;60.00
47414;DHT22;33163;0.000;0.000;2023-02-21T10:40:28;18.70;60.00
47414;DHT22;33163;0.000;0.000;2023-02-21T10:43:02;18.70;59.90
47414;DHT22;33163;0.000;0.000;2023-02-21T10:45:34;18.70;59.90
47414;DHT22;33163;0.000;0.000;2023-02-21T10:48:06;18.70;59.90
47414;DHT22;33163;0.000;0.000;2023-02-21T10:50:42;18.70;60.00
47414;DHT22;33163;0.000;0.000;2023-02-21T10:53:23;18.70;60.00
47414;DHT22;33163;0.000;0.000;2023-02-21T10:56:05;18.70;60.00
47414;DHT22;33163;0.000;0.000;2023-02-21T10:58:34;18.70;60.00
47414;DHT22;33163;0.000;0.000;2023-02-21T11:01:11;18.70;60.00
47414;DHT22;33163;0.000;0.000;2023-02-21T11:03:42;18.70;60.00
47414;DHT22;33163;0.000;0.000;2023-02-21T11:06:21;18.70;60.00
47414;DHT22;33163;0.000;0.000;2023-02-21T11:08:49;18.70;60.00
47414;DHT22;33163;0.000;0.000;2023-02-21T11:11:30;18.70;59.90
47414;DHT22;33163;0.000;0.000;2023-02-21T11:14:21;18.80;59.90
47414;DHT22;33163;0.000;0.000;2023-02-21T11:17:12;18.90;59.90
47414;DHT22;33163;0.000;0.000;2023-02-21T11:19:58;18.80;59.70
47414;DHT22;33163;0.000;0.000;2023-02-21T11:22:36;18.80;59.60
47414;DHT22;33163;0.000;0.000;2023-02-21T11:25:06;18.80;59.60
47414;DHT22;33163;0.000;0.000;2023-02-21T11:27:34;18.90;59.70
47414;DHT22;33163;0.000;0.000;2023-02-21T11:30:12;18.90;59.70
47414;DHT22;33163;0.000;0.000;2023-02-21T11:32:42;18.90;59.60
47414;DHT22;33163;0.000;0.000;2023-02-21T11:35:22;18.90;59.50
47414;DHT22;33163;0.000;0.000;2023-02-21T11:37:52;19.00;59.50
47414;DHT22;33163;0.000;0.000;2023-02-21T11:40:28;19.00;59.50
47414;DHT22;33163;0.000;0.000;2023-02-21T11:43:18;19.00;59.50
47414;DHT22;33163;0.000;0.000;2023-02-21T11:48:38;19.00;59.50
47414;DHT22;33163;0.000;0.000;2023-02-21T11:51:25;19.00;59.50
47414;DHT22;33163;0.000;0.000;2023-02-21T11:53:52;19.00;59.50
47414;DHT22;33163;0.000;0.000;2023-02-21T11:56:27;19.00;59.40
47414;DHT22;33163;0.000;0.000;2023-02-21T11:59:02;19.00;59.40
47414;DHT22;33163;0.000;0.000;2023-02-21T12:01:39;19.00;59.30
47414;DHT22;33163;0.000;0.000;2023-02-21T12:04:28;19.10;59.50
47414;DHT22;33163;0.000;0.000;2023-02-21T12:07:06;19.00;59.40
47414;DHT22;33163;0.000;0.000;2023-02-21T12:09:45;19.10;59.60
47414;DHT22;33163;0.000;0.000;2023-02-21T12:12:27;19.00;59.70
47414;DHT22;33163;0.000;0.000;2023-02-21T12:15:02;19.00;59.80
47414;DHT22;33163;0.000;0.000;2023-02-21T12:17:59;19.00;59.90
47414;DHT22;33163;0.000;0.000;2023-02-21T12:20:42;19.00;60.60
47414;DHT22;33163;0.000;0.000;2023-02-21T12:23:17;19.10;60.00
47414;DHT22;33163;0.000;0.000;2023-02-21T12:26:00;19.10;59.80
47414;DHT22;33163;0.000;0.000;2023-02-21T12:28:33;19.10;59.70
47414;DHT22;33163;0.000;0.000;2023-02-21T12:31:10;19.10;59.60
47414;DHT22;33163;0.000;0.000;2023-02-21T12:33:47;19.20;59.60
47414;DHT22;33163;0.000;0.000;2023-02-21T12:36:29;19.20;60.20
47414;DHT22;33163;0.000;0.000;2023-02-21T12:39:07;19.20;59.40
47414;DHT22;33163;0.000;0.000;2023-02-21T12:41:59;19.20;59.40
47414;DHT22;33163;0.000;0.000;2023-02-21T12:44:35;19.20;59.30
47414;DHT22;33163;0.000;0.000;2023-02-21T12:47:13;19.20;59.40
47414;DHT22;33163;0.000;0.000;2023-02-21T12:49:48;19.20;59.40
47414;DHT22;33163;0.000;0.000;2023-02-21T12:52:22;19.20;59.30
47414;DHT22;33163;0.000;0.000;2023-02-21T12:54:56;19.20;59.20
47414;DHT22;33163;0.000;0.000;2023-02-21T12:57:30;19.30;59.20
47414;DHT22;33163;0.000;0.000;2023-02-21T13:00:03;19.20;59.10
47414;DHT22;33163;0.000;0.000;2023-02-21T13:02:38;19.30;59.20
47414;DHT22;33163;0.000;0.000;2023-02-21T13:05:12;19.30;59.10
47414;DHT22;33163;0.000;0.000;2023-02-21T13:07:45;19.20;59.00
47414;DHT22;33163;0.000;0.000;2023-02-21T13:10:17;19.20;59.00
47414;DHT22;33163;0.000;0.000;2023-02-21T13:12:49;19.20;59.00
47414;DHT22;33163;0.000;0.000;2023-02-21T13:15:20;19.20;59.00
47414;DHT22;33163;0.000;0.000;2023-02-21T13:17:57;19.10;59.10
47414;DHT22;33163;0.000;0.000;2023-02-21T13:20:27;19.10;59.20
47414;DHT22;33163;0.000;0.000;2023-02-21T13:22:57;19.10;59.30
47414;DHT22;33163;0.000;0.000;2023-02-21T13:25:53;19.10;59.30
47414;DHT22;33163;0.000;0.000;2023-02-21T13:28:26;19.10;59.30
47414;DHT22;33163;0.000;0.000;2023-02-21T13:30:58;19.10;59.20
47414;DHT22;33163;0.000;0.000;2023-02-21T13:33:28;19.10;59.20
47414;DHT22;33163;0.000;0.000;2023-02-21T13:35:58;19.10;59.20
47414;DHT22;33163;0.000;0.000;2023-02-21T13:38:27;19.00;59.20
47414;DHT22;33163;0.000;0.000;2023-02-21T13:41:04;19.00;59.30
47414;DHT22;33163;0.000;0.000;2023-02-21T13:43:33;19.00;59.30
47414;DHT22;33163;0.000;0.000;2023-02-21T13:46:23;19.00;59.20
47414;DHT22;33163;0.000;0.000;2023-02-21T13:51:51;19.10;59.10
47414;DHT22;33163;0.000;0.000;2023-02-21T13:54:22;19.00;59.20
47414;DHT22;33163;0.000;0.000;2023-02-21T13:56:53;19.00;59.10
47414;DHT22;33163;0.000;0.000;2023-02-21T13:59:34;18.90;59.10
47414;DHT22;33163;0.000;0.000;2023-02-21T14:02:21;18.90;59.20
47414;DHT22;33163;0.000;0.000;2023-02-21T14:05:05;19.00;59.10
47414;DHT22;33163;0.000;0.000;2023-02-21T14:07:49;19.00;59.10
47414;DHT22;33163;0.000;0.000;2023-02-21T14:10:33;19.10;59.20
47414;DHT22;33163;0.000;0.000;2023-02-21T14:13:07;19.10;59.30
47414;DHT22;33163;0.000;0.000;2023-02-21T14:15:44;19.10;59.30
47414;DHT22;33163;0.000;0.000;2023-02-21T14:18:17;19.10;59.40
47414;DHT22;33163;0.000;0.000;2023-02-21T14:20:47;19.10;59.50
47414;DHT22;33163;0.000;0.000;2023-02-21T14:23:18;19.20;59.40
47414;DHT22;33163;0.000;0.000;2023-02-21T14:25:59;19.20;59.20
47414;DHT22;33163;0.000;0.000;2023-02-21T14:31:50;19.30;58.90
47414;DHT22;33163;0.000;0.000;2023-02-21T14:34:23;19.30;58.70
47414;DHT22;33163;0.000;0.000;2023-02-21T14:36:51;19.30;58.50
47414;DHT22;33163;0.000;0.000;2023-02-21T14:39:21;19.40;58.50
47414;DHT22;33163;0.000;0.000;2023-02-21T14:42:07;19.40;58.30
47414;DHT22;33163;0.000;0.000;2023-02-21T14:44:51;19.40;58.90
47414;DHT22;33163;0.000;0.000;2023-02-21T14:47:45;19.40;58.20
47414;DHT22;33163;0.000;0.000;2023-02-21T14:50:27;19.40;58.10
47414;DHT22;33163;0.000;0.000;2023-02-21T14:53:21;19.40;58.20
47414;DHT22;33163;0.000;0.000;2023-02-21T14:56:08;19.30;58.10
47414;DHT22;33163;0.000;0.000;2023-02-21T15:01:50;19.30;58.10
47414;DHT22;33163;0.000;0.000;2023-02-21T15:04:30;19.30;58.20
47414;DHT22;33163;0.000;0.000;2023-02-21T15:07:06;19.30;58.20
47414;DHT22;33163;0.000;0.000;2023-02-21T15:09:34;19.20;58.20
47414;DHT22;33163;0.000;0.000;2023-02-21T15:12:05;19.30;58.20
47414;DHT22;33163;0.000;0.000;2023-02-21T15:14:37;19.30;58.10
47414;DHT22;33163;0.000;0.000;2023-02-21T15:17:12;19.30;58.10
47414;DHT22;33163;0.000;0.000;2023-02-21T15:19:39;19.30;58.00
47414;DHT22;33163;0.000;0.000;2023-02-21T15:22:15;19.30;58.00
47414;DHT22;33163;0.000;0.000;2023-02-21T15:27:52;19.30;57.90
47414;DHT22;33163;0.000;0.000;2023-02-21T15:30:22;19.20;57.90
47414;DHT22;33163;0.000;0.000;2023-02-21T15:32:55;19.20;58.00
47414;DHT22;33163;0.000;0.000;2023-02-21T15:35:25;19.30;58.00
47414;DHT22;33163;0.000;0.000;2023-02-21T15:37:55;19.20;58.00
47414;DHT22;33163;0.000;0.000;2023-02-21T15:40:23;19.20;58.00
47414;DHT22;33163;0.000;0.000;2023-02-21T15:43:04;19.30;58.00
47414;DHT22;33163;0.000;0.000;2023-02-21T15:45:52;19.30;57.90
47414;DHT22;33163;0.000;0.000;2023-02-21T15:48:20;19.30;58.00
47414;DHT22;33163;0.000;0.000;2023-02-21T15:50:48;19.30;57.90
47414;DHT22;33163;0.000;0.000;2023-02-21T15:53:17;19.20;57.90
47414;DHT22;33163;0.000;0.000;2023-02-21T15:55:45;19.20;57.90
47414;DHT22;33163;0.000;0.000;2023-02-21T15:58:21;19.20;57.90
47414;DHT22;33163;0.000;0.000;2023-02-21T16:00:49;19.20;58.00
47414;DHT22;33163;0.000;0.000;2023-02-21T16:03:33;19.10;58.00
47414;DHT22;33163;0.000;0.000;2023-02-21T16:06:16;19.10;58.10
47414;DHT22;33163;0.000;0.000;2023-02-21T16:09:00;19.10;58.10
47414;DHT22;33163;0.000;0.000;2023-02-21T16:11:40;19.10;58.20
47414;DHT22;33163;0.000;0.000;2023-02-21T16:14:19;19.10;58.20
47414;DHT22;33163;0.000;0.000;2023-02-21T16:16:47;19.20;58.10
47414;DHT22;33163;0.000;0.000;2023-02-21T16:19:20;19.20;58.00
47414;DHT22;33163;0.000;0.000;2023-02-21T16:21:47;19.20;57.90
47414;DHT22;33163;0.000;0.000;2023-02-21T16:24:27;19.30;57.80
47414;DHT22;33163;0.000;0.000;2023-02-21T16:27:04;19.40;57.60
47414;DHT22;33163;0.000;0.000;2023-02-21T16:29:33;19.40;57.30
47414;DHT22;33163;0.000;0.000;2023-02-21T16:32:00;19.40;57.20
47414;DHT22;33163;0.000;0.000;2023-02-21T16:34:30;19.50;57.10
47414;DHT22;33163;0.000;0.000;2023-02-21T16:37:02;19.60;57.00
47414;DHT22;33163;0.000;0.000;2023-02-21T16:39:29;19.60;56.90
47414;DHT22;33163;0.000;0.000;2023-02-21T16:41:56;19.60;56.80
47414;DHT22;33163;0.000;0.000;2023-02-21T16:44:23;19.70;56.70
47414;DHT22;33163;0.000;0.000;2023-02-21T16:46:51;19.70;56.50
47414;DHT22;33163;0.000;0.000;2023-02-21T16:49:19;19.70;56.50